| |
Missouri Department of Transportation

Social Media Facebook Twitter Flickr Instagram YouTube RSS

Current AWOS Information

AWOS Home - General Info for all Airports
Current AWOS for all Airports - Current METAR for all Airports
Glossary - Disclaimer - Other Links

Recent AWOS History
10/26/16     06:12 AM CDT      11:12 GMT
Air Temperature 62°F (17°C ) 1st Cloud Layer Broken at 5,000 feet
Dew Point 49°F (9°C) 2nd Cloud Layer Broken at 7,500 feet
Barometric Pressure 30.05 in Hg. 3rd Cloud Layer Broken at 8,500 feet
Wind Speed 11 mph (10 knots) Density Altitude  
Peak Wind Gusts 20 mph (18 knots) Variable Wind Directions  
Wind Direction Quadrant(190°) Variable Visibility  
Visibility 10 statute miles  

Thunderstorm and Precipitation Identification:  Thunderstorm In The Vicinity
Thunderstorm Remarks:  Lightning Vicinity And Distant North North-East And South-West

Current METAR Record: METAR KMBY 261059Z AUTO 17012KT 10SM VCTS BKN055 BKN075 BKN085 17/10 A3004 RMK AO2 LTG DSNT N AND NW




About Us
How Do I...
Contact Us
Missouri Department of Transportation
Central Office
105 W. Capitol Avenue
Jefferson City, MO 65102
1-888-ASK-MODOT (275-6636)
1-866-831-6277 (Motor Carrier Services)
Driver's License Offices
| | |
Missouri State Government
© 2013 Missouri Department of Transportation. All Rights Reserved.   Privacy Policy.
RSS FeedYoutubeBlogFlickrTwitter Facebook